Time;durP1;ratioP1;P1;durP2;ratioP2;P2;SDS_P1;SDS_P2;PMS_P1;PMS_P2;Temp;Humidity;BMP_temperature;BMP_pressure;BME280_temperature;BME280_humidity;BME280_pressure;Samples;Min_cycle;Max_cycle;Signal;HPM_P1;HPM_P2
2022/09/21 00:02:03;;;;;;;4.47;1.50;;;9.70;99.90;;;;;;21011115;28;20051;-79
2022/09/21 00:12:04;;;;;;;6.07;1.97;;;9.40;99.90;;;;;;21011326;28;20035;-80
2022/09/21 00:22:06;;;;;;;6.17;1.60;;;9.10;99.90;;;;;;21009450;28;20182;-80
2022/09/21 00:32:06;;;;;;;5.88;1.90;;;8.90;99.90;;;;;;20991922;28;20056;-80
2022/09/21 00:42:12;;;;;;;6.17;1.33;;;9.10;99.90;;;;;;21009969;28;20032;-80
2022/09/21 00:52:16;;;;;;;7.03;1.70;;;9.00;99.90;;;;;;21022586;28;20035;-78
2022/09/21 01:02:17;;;;;;;7.20;1.63;;;8.70;99.90;;;;;;21006557;28;20040;-80
2022/09/21 01:12:18;;;;;;;5.50;1.77;;;8.70;99.90;;;;;;21023968;28;20029;-78
2022/09/21 01:22:40;;;;;;;2.27;1.40;;;8.40;99.90;;;;;;20974323;22;20047;-78
2022/09/21 01:32:53;;;;;;;4.60;1.55;;;8.40;99.90;;;;;;20923735;28;20033;-78
2022/09/21 01:42:55;;;;;;;5.43;1.88;;;8.40;99.90;;;;;;20923967;28;20037;-78
2022/09/21 01:53:06;;;;;;;3.53;1.67;;;8.50;99.90;;;;;;20921639;28;20048;-78
2022/09/21 02:03:13;;;;;;;;;;;8.40;99.90;;;;;;20920037;28;20068;-78
2022/09/21 02:13:17;;;;;;;2.72;1.65;;;8.30;99.90;;;;;;20919829;28;19943;-78
2022/09/21 02:23:33;;;;;;;6.88;1.90;;;8.30;99.90;;;;;;20926100;28;20029;-79
2022/09/21 02:33:48;;;;;;;6.30;2.15;;;8.40;99.90;;;;;;20919304;28;20041;-78
2022/09/21 02:43:57;;;;;;;6.32;1.80;;;8.30;99.90;;;;;;20918568;28;20076;-78
2022/09/21 02:54:01;;;;;;;4.50;1.88;;;8.30;99.90;;;;;;20914525;28;20032;-77
2022/09/21 03:04:02;;;;;;;6.75;2.20;;;8.30;99.90;;;;;;20911976;28;20060;-78
2022/09/21 03:14:07;;;;;;;6.80;2.17;;;8.30;99.90;;;;;;20911031;28;20053;-78
2022/09/21 03:24:08;;;;;;;3.00;1.83;;;8.10;99.90;;;;;;20911495;28;20063;-78
2022/09/21 03:34:10;;;;;;;9.10;2.27;;;8.10;99.90;;;;;;20915610;28;20033;-78
2022/09/21 03:44:11;;;;;;;3.33;2.00;;;8.10;99.90;;;;;;20919773;28;20037;-77
2022/09/21 03:54:11;;;;;;;4.43;2.40;;;8.10;99.90;;;;;;20904645;28;20040;-77
2022/09/21 04:04:12;;;;;;;10.37;2.77;;;8.00;99.90;;;;;;20908070;28;20025;-76
2022/09/21 04:14:13;;;;;;;4.47;1.87;;;8.10;99.90;;;;;;20905389;28;20051;-77
2022/09/21 04:24:15;;;;;;;6.80;2.47;;;8.00;99.90;;;;;;20904710;28;20044;-78
2022/09/21 04:34:16;;;;;;;6.35;2.53;;;8.10;99.90;;;;;;20906668;28;20028;-77
2022/09/21 04:44:18;;;;;;;4.07;2.17;;;8.00;99.90;;;;;;20906189;28;20033;-76
2022/09/21 04:54:18;;;;;;;4.15;2.15;;;7.60;99.90;;;;;;20906406;28;20102;-77
2022/09/21 05:04:19;;;;;;;6.83;2.77;;;7.50;99.90;;;;;;20906264;28;20037;-77
2022/09/21 05:14:20;;;;;;;9.83;2.67;;;7.40;99.90;;;;;;20905432;28;20025;-76
2022/09/21 05:24:21;;;;;;;4.67;2.77;;;7.00;99.90;;;;;;20904108;28;20120;-76
2022/09/21 05:34:40;;;;;;;6.43;3.20;;;6.60;99.90;;;;;;20899797;28;20037;-75
2022/09/21 05:44:41;;;;;;;5.00;2.88;;;6.30;99.90;;;;;;20914098;28;20547;-75
2022/09/21 05:55:11;;;;;;;7.90;3.10;;;6.80;99.90;;;;;;20916323;28;20029;-75
2022/09/21 06:05:14;;;;;;;6.97;3.35;;;7.50;99.90;;;;;;20927086;28;20037;-78
2022/09/21 06:15:15;;;;;;;12.50;3.28;;;8.40;99.90;;;;;;20915198;28;20025;-76
2022/09/21 06:25:18;;;;;;;7.93;2.80;;;8.70;99.90;;;;;;20916292;28;20067;-76
2022/09/21 06:35:19;;;;;;;7.45;3.15;;;9.00;99.90;;;;;;20914208;28;20036;-77
2022/09/21 06:45:20;;;;;;;7.73;3.63;;;9.60;99.90;;;;;;20896508;28;20075;-77
2022/09/21 06:55:20;;;;;;;14.37;3.40;;;10.20;99.90;;;;;;20912321;28;20040;-78
2022/09/21 07:05:22;;;;;;;6.27;3.40;;;10.90;99.90;;;;;;20909235;28;20512;-76
2022/09/21 07:15:22;;;;;;;7.70;3.45;;;11.00;99.90;;;;;;20910766;28;20570;-77
2022/09/21 07:25:23;;;;;;;7.13;3.03;;;11.80;99.90;;;;;;21038613;22;20079;-77
2022/09/21 07:35:24;;;;;;;8.33;2.87;;;12.90;99.90;;;;;;21081135;28;20497;-77
2022/09/21 07:45:25;;;;;;;7.67;2.53;;;13.30;99.90;;;;;;21086835;28;20035;-77
2022/09/21 07:55:27;;;;;;;6.63;2.65;;;13.60;99.90;;;;;;21090102;28;20032;-79
2022/09/21 08:05:28;;;;;;;4.43;2.65;;;14.10;99.90;;;;;;21097936;28;20037;-79
2022/09/21 08:15:28;;;;;;;15.70;5.87;;;15.10;99.90;;;;;;21108487;28;20115;-78
2022/09/21 08:25:29;;;;;;;17.83;6.13;;;15.90;99.90;;;;;;21094146;28;20028;-79
2022/09/21 08:35:30;;;;;;;8.43;3.43;;;16.10;99.90;;;;;;21094838;28;20081;-77
2022/09/21 08:45:36;;;;;;;11.23;2.10;;;16.10;99.90;;;;;;21096059;28;20039;-78
2022/09/21 08:55:37;;;;;;;8.75;2.28;;;17.10;99.90;;;;;;21094314;28;20028;-78
2022/09/21 09:05:51;;;;;;;3.83;1.60;;;17.10;99.90;;;;;;21095544;28;20032;-80
2022/09/21 09:16:19;;;;;;;3.75;1.90;;;16.80;99.90;;;;;;21104212;28;20090;-79
2022/09/21 09:26:41;;;;;;;4.85;1.15;;;17.40;99.90;;;;;;21092978;28;20415;-79
2022/09/21 09:37:09;;;;;;;3.83;0.83;;;16.50;99.90;;;;;;21115293;28;20041;-79
2022/09/21 09:47:36;;;;;;;3.95;1.23;;;18.20;99.90;;;;;;21106674;28;20028;-79
2022/09/21 09:57:36;;;;;;;5.43;1.10;;;18.70;99.90;;;;;;21107637;28;20114;-79
2022/09/21 10:07:40;;;;;;;3.40;0.87;;;18.20;99.90;;;;;;21105151;28;20024;-79
2022/09/21 10:17:43;;;;;;;7.22;0.85;;;18.40;99.90;;;;;;21105847;28;20126;-79
2022/09/21 10:27:48;;;;;;;4.32;0.82;;;19.60;99.90;;;;;;21102963;28;20036;-79
2022/09/21 10:38:15;;;;;;;4.25;1.00;;;18.80;99.90;;;;;;21101839;28;20031;-80
2022/09/21 10:48:19;;;;;;;3.47;1.20;;;19.70;99.90;;;;;;21099264;28;20036;-79
2022/09/21 10:58:20;;;;;;;2.03;0.98;;;20.00;99.90;;;;;;21087325;28;20039;-78
2022/09/21 11:08:38;;;;;;;5.67;0.80;;;19.70;99.90;;;;;;21102160;28;20036;-79
2022/09/21 11:18:48;;;;;;;3.50;1.02;;;19.80;99.90;;;;;;21091287;28;20094;-78
2022/09/21 11:29:10;;;;;;;1.33;0.90;;;20.00;99.90;;;;;;21088198;28;20036;-78
2022/09/21 11:39:25;;;;;;;3.33;1.00;;;20.40;99.90;;;;;;21089453;28;20028;-77
2022/09/21 11:49:51;;;;;;;1.73;0.82;;;20.50;99.90;;;;;;21092756;28;20035;-78
2022/09/21 12:00:21;;;;;;;3.65;0.93;;;20.90;99.90;;;;;;21097060;28;20038;-78
2022/09/21 12:11:00;;;;;;;4.63;0.95;;;20.90;99.90;;;;;;21096161;28;20119;-79
2022/09/21 12:21:07;;;;;;;1.08;0.65;;;19.80;99.90;;;;;;21097043;28;20131;-79
2022/09/21 12:31:32;;;;;;;2.15;0.77;;;19.60;99.90;;;;;;21099238;28;20051;-78
2022/09/21 12:41:58;;;;;;;4.82;0.82;;;21.00;99.90;;;;;;21094240;28;20035;-79
2022/09/21 12:52:05;;;;;;;6.68;1.40;;;20.30;99.90;;;;;;21103943;28;20024;-79
2022/09/21 13:02:33;;;;;;;4.75;2.13;;;21.40;99.90;;;;;;21107923;28;20059;-79
2022/09/21 13:12:40;;;;;;;6.60;0.60;;;21.30;99.90;;;;;;21107500;28;20032;-79
2022/09/21 13:22:41;;;;;;;10.20;4.25;;;21.50;99.90;;;;;;21148283;22;20046;-76
2022/09/21 13:32:51;;;;;;;7.57;1.50;;;21.40;99.90;;;;;;21077817;22;20045;-77
2022/09/21 13:42:52;;;;;;;3.10;0.70;;;21.00;99.90;;;;;;21008222;28;20036;-77
2022/09/21 13:53:02;;;;;;;1.67;0.83;;;21.10;99.90;;;;;;21003135;28;20029;-77
2022/09/21 14:03:31;;;;;;;1.65;0.60;;;20.60;99.90;;;;;;20984492;28;20391;-76
2022/09/21 14:13:44;;;;;;;2.10;0.50;;;21.10;99.90;;;;;;21000718;28;20134;-77
2022/09/21 14:24:06;;;;;;;6.65;0.73;;;21.20;99.90;;;;;;20993770;28;20466;-78
2022/09/21 14:34:15;;;;;;;1.27;0.50;;;20.70;99.90;;;;;;20982715;28;20037;-78
2022/09/21 14:44:21;;;;;;;1.58;0.55;;;20.80;99.90;;;;;;20926092;28;20028;-78
2022/09/21 14:55:00;;;;;;;2.97;0.50;;;20.60;99.90;;;;;;20963737;28;20033;-78
2022/09/21 15:05:08;;;;;;;0.52;0.40;;;20.70;99.90;;;;;;20926209;28;20037;-78
2022/09/21 15:15:31;;;;;;;1.25;0.50;;;20.60;99.90;;;;;;20981471;28;20028;-77
2022/09/21 15:25:32;;;;;;;1.52;0.40;;;20.40;99.90;;;;;;21018090;28;20033;-77
2022/09/21 15:35:34;;;;;;;;;;;19.90;99.90;;;;;;21002189;28;20032;-78
2022/09/21 15:45:58;;;;;;;2.13;0.80;;;19.40;99.90;;;;;;20956716;28;19935;-78
2022/09/21 15:55:59;;;;;;;3.08;0.30;;;18.80;99.90;;;;;;20970491;28;20051;-78
2022/09/21 16:06:22;;;;;;;6.50;0.47;;;18.40;99.90;;;;;;21001660;28;20037;-77
2022/09/21 16:16:23;;;;;;;2.45;0.70;;;17.50;99.90;;;;;;21004106;28;20028;-77
2022/09/21 16:26:31;;;;;;;1.20;1.00;;;17.30;99.90;;;;;;21006052;28;20033;-77
2022/09/21 16:36:40;;;;;;;1.25;0.60;;;17.10;99.90;;;;;;21016503;28;20499;-78
2022/09/21 16:46:42;;;;;;;4.28;0.77;;;16.70;99.90;;;;;;21020918;28;20036;-77
2022/09/21 16:56:45;;;;;;;3.30;2.05;;;16.20;99.90;;;;;;21018599;28;20029;-78
2022/09/21 17:06:45;;;;;;;0.45;0.40;;;15.90;99.90;;;;;;21007405;28;20486;-77
2022/09/21 17:16:50;;;;;;;2.07;0.70;;;15.50;99.90;;;;;;21057490;28;20028;-78
2022/09/21 17:26:51;;;;;;;1.17;0.50;;;15.10;99.90;;;;;;21006895;28;20033;-77
2022/09/21 17:36:52;;;;;;;0.77;0.40;;;14.50;99.90;;;;;;21040968;28;20040;-77
2022/09/21 17:47:11;;;;;;;2.05;0.57;;;14.30;99.90;;;;;;20995762;28;20494;-77
2022/09/21 17:57:49;;;;;;;1.60;0.60;;;13.90;99.90;;;;;;21013258;28;20044;-77
2022/09/21 18:07:50;;;;;;;0.52;0.40;;;13.50;99.90;;;;;;20964412;28;20044;-78
2022/09/21 18:18:28;;;;;;;0.50;0.40;;;13.20;99.90;;;;;;21017040;28;20406;-78
2022/09/21 18:28:42;;;;;;;1.33;0.80;;;12.90;99.90;;;;;;21002796;28;20604;-77
2022/09/21 18:39:11;;;;;;;3.20;0.80;;;12.40;99.90;;;;;;20997697;28;20033;-77
2022/09/21 18:49:27;;;;;;;2.53;0.90;;;12.10;99.90;;;;;;20996944;28;20036;-77
2022/09/21 18:59:28;;;;;;;1.10;0.75;;;11.90;99.90;;;;;;21000273;28;20044;-76
2022/09/21 19:09:50;;;;;;;2.70;0.77;;;11.70;99.90;;;;;;21002015;28;20081;-77
2022/09/21 19:20:18;;;;;;;1.03;0.77;;;11.60;99.90;;;;;;21099131;22;20051;-77
2022/09/21 19:30:18;;;;;;;1.33;0.65;;;11.60;99.90;;;;;;21062491;28;20067;-76
2022/09/21 19:40:23;;;;;;;4.37;1.07;;;11.50;99.90;;;;;;21086399;28;20028;-78
2022/09/21 19:50:31;;;;;;;5.65;1.15;;;11.20;99.90;;;;;;21099715;28;20057;-77
2022/09/21 20:00:32;;;;;;;1.42;0.90;;;10.90;99.90;;;;;;21080053;28;20031;-79
2022/09/21 20:11:01;;;;;;;3.10;1.00;;;10.60;99.90;;;;;;21085530;28;20107;-79
2022/09/21 20:21:02;;;;;;;2.17;1.00;;;10.50;99.90;;;;;;21082815;28;20031;-78
2022/09/21 20:31:03;;;;;;;5.20;1.03;;;10.50;99.90;;;;;;21074764;28;20036;-78
2022/09/21 20:41:12;;;;;;;0.93;0.70;;;10.30;99.90;;;;;;21075493;28;20712;-78
2022/09/21 20:51:13;;;;;;;2.53;1.20;;;10.20;99.90;;;;;;21084160;28;20039;-78
2022/09/21 21:01:13;;;;;;;2.60;0.90;;;10.20;99.90;;;;;;21080959;28;20024;-79
2022/09/21 21:11:14;;;;;;;0.60;0.60;;;10.30;99.90;;;;;;21111762;28;20038;-80
2022/09/21 21:21:15;;;;;;;1.47;0.90;;;10.20;99.90;;;;;;21124024;28;20032;-79
2022/09/21 21:31:16;;;;;;;1.77;1.00;;;10.00;99.90;;;;;;21095615;28;20035;-80
2022/09/21 21:41:16;;;;;;;2.00;1.03;;;10.00;99.90;;;;;;21090254;28;20111;-80
2022/09/21 21:51:17;;;;;;;1.37;0.80;;;10.10;99.90;;;;;;21104817;28;20138;-80
2022/09/21 22:01:25;;;;;;;1.03;0.73;;;9.80;99.90;;;;;;21102720;28;20081;-79
2022/09/21 22:11:27;;;;;;;2.58;1.00;;;9.80;99.90;;;;;;21103708;28;20036;-80
2022/09/21 22:21:32;;;;;;;2.40;1.20;;;10.10;99.90;;;;;;21098298;28;20043;-80
2022/09/21 22:31:36;;;;;;;3.47;1.00;;;10.00;99.90;;;;;;21107514;28;20032;-79
2022/09/21 22:41:39;;;;;;;8.27;0.90;;;9.90;99.90;;;;;;21120085;28;20085;-80
2022/09/21 22:51:40;;;;;;;1.52;0.93;;;9.90;99.90;;;;;;21124267;28;20099;-79
2022/09/21 23:01:41;;;;;;;2.50;0.80;;;9.80;99.90;;;;;;21108035;28;20394;-79
2022/09/21 23:11:46;;;;;;;4.00;1.50;;;9.60;99.90;;;;;;21088266;28;20508;-79
2022/09/21 23:21:48;;;;;;;2.92;1.27;;;9.60;99.90;;;;;;21090733;28;20035;-80
2022/09/21 23:31:49;;;;;;;1.77;1.00;;;9.00;99.90;;;;;;21096117;28;20036;-80
2022/09/21 23:41:50;;;;;;;0.87;0.80;;;8.60;99.90;;;;;;21092297;28;20028;-80
2022/09/21 23:51:50;;;;;;;1.20;1.00;;;8.60;99.90;;;;;;21073394;28;20101;-79
